createdAt,value
2023-05-13T00:02:26.196Z,6.29
2023-05-13T00:05:14.411Z,6.24
2023-05-13T00:08:08.194Z,6.20
2023-05-13T00:11:01.306Z,6.15
2023-05-13T00:13:44.499Z,6.10
2023-05-13T00:16:37.186Z,6.05
2023-05-13T00:19:30.329Z,5.99
2023-05-13T00:22:15.814Z,5.95
2023-05-13T00:25:02.356Z,5.90
2023-05-13T00:27:35.458Z,5.86
2023-05-13T00:30:17.624Z,5.81
2023-05-13T00:33:13.109Z,5.76
2023-05-13T00:36:06.687Z,5.70
2023-05-13T00:38:53.291Z,5.65
2023-05-13T00:41:36.170Z,5.60
2023-05-13T00:44:21.503Z,5.55
2023-05-13T00:47:14.979Z,5.50
2023-05-13T00:50:11.260Z,5.46
2023-05-13T00:52:56.894Z,5.42
2023-05-13T00:55:46.438Z,5.39
2023-05-13T00:58:39.214Z,5.36
2023-05-13T01:01:38.149Z,5.32
2023-05-13T01:04:38.830Z,5.29
2023-05-13T01:07:22.961Z,5.26
2023-05-13T01:10:25.435Z,5.22
2023-05-13T01:13:05.746Z,5.17
2023-05-13T01:16:05.023Z,5.13
2023-05-13T01:19:04.008Z,5.09
2023-05-13T01:21:58.194Z,5.04
2023-05-13T01:24:51.665Z,5.00
2023-05-13T01:27:46.372Z,4.95
2023-05-13T01:30:33.237Z,4.91
2023-05-13T01:33:17.913Z,4.89
2023-05-13T01:36:12.244Z,4.85
2023-05-13T01:39:06.081Z,4.81
2023-05-13T01:41:58.892Z,4.78
2023-05-13T01:44:52.366Z,4.75
2023-05-13T01:47:28.579Z,4.73
2023-05-13T01:50:08.819Z,4.70
2023-05-13T01:52:51.616Z,4.67
2023-05-13T01:55:44.947Z,4.64
2023-05-13T01:58:20.804Z,4.61
2023-05-13T02:00:55.562Z,4.58
2023-05-13T02:03:28.363Z,4.56
2023-05-13T02:06:15.584Z,4.53
2023-05-13T02:08:51.441Z,4.51
2023-05-13T02:11:38.212Z,4.48
2023-05-13T02:14:31.237Z,4.46
2023-05-13T02:17:24.554Z,4.43
2023-05-13T02:20:17.748Z,4.41
2023-05-13T02:23:01.039Z,4.37
2023-05-13T02:25:41.283Z,4.34
2023-05-13T02:28:19.210Z,4.32
2023-05-13T02:31:12.626Z,4.29
2023-05-13T02:34:03.010Z,4.26
2023-05-13T02:36:45.996Z,4.23
2023-05-13T02:39:31.841Z,4.22
2023-05-13T02:42:09.706Z,4.20
2023-05-13T02:44:44.864Z,4.19
2023-05-13T02:47:23.016Z,4.18
2023-05-13T02:50:17.406Z,4.18
2023-05-13T02:52:50.262Z,4.19
2023-05-13T02:55:26.560Z,4.22
2023-05-13T02:58:12.985Z,4.26
2023-05-13T03:00:55.862Z,4.30
2023-05-13T03:03:48.974Z,4.35
2023-05-13T03:06:35.903Z,4.41
2023-05-13T03:09:28.916Z,4.47
2023-05-13T03:12:07.065Z,4.54
2023-05-13T03:14:59.729Z,4.62
2023-05-13T03:17:52.559Z,4.73
2023-05-13T03:20:28.595Z,4.83
2023-05-13T03:23:21.548Z,4.97
2023-05-13T03:26:15.053Z,5.12
2023-05-13T03:29:07.806Z,5.33
2023-05-13T03:32:02.081Z,5.55
2023-05-13T03:34:38.656Z,5.78
2023-05-13T03:37:31.565Z,6.03
2023-05-13T03:40:18.928Z,6.29
2023-05-13T03:43:12.381Z,6.52
2023-05-13T03:46:04.272Z,6.75
2023-05-13T03:48:48.027Z,6.95
2023-05-13T03:51:21.056Z,7.11
2023-05-13T03:54:13.998Z,7.29
2023-05-13T03:57:07.006Z,7.49
2023-05-13T04:00:00.005Z,7.68
2023-05-13T04:02:35.914Z,7.83
2023-05-13T04:05:19.865Z,7.98
2023-05-13T04:08:02.351Z,8.13
2023-05-13T04:10:35.119Z,8.27
2023-05-13T04:13:27.819Z,8.43
2023-05-13T04:16:11.930Z,8.57
2023-05-13T04:18:48.029Z,8.73
2023-05-13T04:21:23.427Z,8.88
2023-05-13T04:24:06.841Z,9.06
2023-05-13T04:27:01.450Z,9.28
2023-05-13T04:29:45.395Z,9.43
2023-05-13T04:32:39.252Z,9.70
2023-05-13T04:35:32.118Z,10.65
2023-05-13T04:39:35.626Z,11.76
2023-05-13T04:42:28.376Z,12.74
2023-05-13T04:45:12.101Z,13.32
2023-05-13T04:48:04.932Z,13.83
2023-05-13T04:50:58.464Z,13.93
2023-05-13T04:53:47.662Z,14.07
2023-05-13T04:56:40.245Z,14.45
2023-05-13T04:59:31.769Z,15.17
2023-05-13T05:02:07.202Z,15.84
2023-05-13T05:04:45.960Z,16.37
2023-05-13T05:07:40.637Z,16.66
2023-05-13T05:10:33.470Z,16.17
2023-05-13T05:13:26.059Z,15.25
2023-05-13T05:16:22.073Z,14.54
2023-05-13T05:19:14.534Z,13.98
2023-05-13T05:22:07.827Z,13.51
2023-05-13T05:24:51.826Z,13.19
2023-05-13T05:27:37.050Z,12.90
2023-05-13T05:30:30.310Z,12.64
2023-05-13T05:33:23.370Z,12.44
2023-05-13T05:36:16.019Z,12.34
2023-05-13T05:39:01.063Z,12.33
2023-05-13T05:41:56.669Z,12.41
2023-05-13T05:44:50.857Z,12.54
2023-05-13T05:47:33.713Z,12.65
2023-05-13T05:50:26.594Z,12.77
2023-05-13T05:53:11.007Z,12.89
2023-05-13T05:56:03.639Z,12.98
2023-05-13T05:58:57.040Z,13.07
2023-05-13T06:01:50.284Z,13.19
2023-05-13T06:04:34.752Z,13.35
2023-05-13T06:07:26.509Z,13.57
2023-05-13T06:10:19.359Z,13.71
2023-05-13T06:13:12.588Z,13.90
2023-05-13T06:15:45.420Z,14.10
2023-05-13T06:18:38.456Z,14.34
2023-05-13T06:21:11.193Z,14.53
2023-05-13T06:23:45.045Z,14.74
2023-05-13T06:26:20.314Z,14.96
2023-05-13T06:29:12.940Z,15.17
2023-05-13T06:31:48.996Z,15.33
2023-05-13T06:34:22.256Z,15.37
2023-05-13T06:36:54.945Z,15.40
2023-05-13T06:39:28.246Z,15.48
2023-05-13T06:42:01.382Z,15.67
2023-05-13T06:44:38.989Z,15.86
2023-05-13T06:47:16.001Z,16.01
2023-05-13T06:49:51.422Z,16.14
2023-05-13T06:52:25.327Z,16.30
2023-05-13T06:54:57.858Z,16.47
2023-05-13T06:57:41.730Z,16.63
2023-05-13T07:00:19.234Z,16.72
2023-05-13T07:02:51.949Z,16.80
2023-05-13T07:05:28.079Z,16.88
2023-05-13T07:08:18.072Z,16.97
2023-05-13T07:10:53.019Z,17.04
2023-05-13T07:13:25.517Z,17.12
2023-05-13T07:16:00.742Z,17.16
2023-05-13T07:18:33.560Z,17.16
2023-05-13T07:21:07.668Z,17.21
2023-05-13T07:23:44.573Z,17.27
2023-05-13T07:26:17.476Z,17.34
2023-05-13T07:28:50.220Z,17.43
2023-05-13T07:31:22.853Z,17.51
2023-05-13T07:34:16.239Z,17.61
2023-05-13T07:37:09.465Z,17.70
2023-05-13T07:40:02.436Z,17.83
2023-05-13T07:42:46.750Z,17.97
2023-05-13T07:45:40.412Z,18.06
2023-05-13T07:48:20.070Z,18.12
2023-05-13T07:50:55.469Z,18.21
2023-05-13T07:53:39.539Z,18.34
2023-05-13T07:56:15.202Z,18.41
2023-05-13T07:58:50.423Z,18.49
2023-05-13T08:01:23.386Z,18.58
2023-05-13T08:03:56.568Z,18.65
2023-05-13T08:06:29.317Z,18.75
2023-05-13T08:09:22.088Z,18.84
2023-05-13T08:12:06.515Z,18.85
2023-05-13T08:15:00.906Z,18.92
2023-05-13T08:17:44.672Z,19.04
2023-05-13T08:20:20.444Z,19.15
2023-05-13T08:23:13.585Z,19.28
2023-05-13T08:25:51.356Z,19.27
2023-05-13T08:28:24.902Z,19.24
2023-05-13T08:31:18.346Z,19.15
2023-05-13T08:34:10.237Z,19.10
2023-05-13T08:36:51.933Z,19.13
2023-05-13T08:39:46.097Z,19.15
2023-05-13T08:42:39.172Z,19.09
2023-05-13T08:45:24.491Z,19.07
2023-05-13T08:48:08.900Z,19.08
2023-05-13T08:51:02.333Z,19.09
2023-05-13T08:53:35.726Z,19.14
2023-05-13T08:56:29.902Z,19.20
2023-05-13T08:59:23.005Z,19.22
2023-05-13T09:02:18.509Z,19.21
2023-05-13T09:05:08.704Z,19.21
2023-05-13T09:07:56.416Z,19.14
2023-05-13T09:10:49.576Z,19.09
2023-05-13T09:13:46.315Z,19.10
2023-05-13T09:16:39.801Z,19.11
2023-05-13T09:19:32.974Z,19.18
2023-05-13T09:22:26.319Z,19.18
2023-05-13T09:24:58.965Z,19.24
2023-05-13T09:27:44.457Z,19.27
2023-05-13T09:30:29.496Z,19.28
2023-05-13T09:33:14.460Z,19.31
2023-05-13T09:35:53.730Z,19.34
2023-05-13T09:38:31.636Z,19.33
2023-05-13T09:41:06.435Z,19.33
2023-05-13T09:43:42.010Z,19.31
2023-05-13T09:46:15.222Z,19.16
2023-05-13T09:48:59.998Z,19.05
2023-05-13T09:51:39.962Z,18.96
2023-05-13T09:54:38.853Z,18.94
2023-05-13T09:57:16.264Z,18.99
2023-05-13T09:59:48.880Z,19.06
2023-05-13T10:02:32.771Z,19.11
2023-05-13T10:05:06.725Z,19.18
2023-05-13T10:07:44.281Z,19.27
2023-05-13T10:10:19.245Z,19.40
2023-05-13T10:12:52.944Z,19.51
2023-05-13T10:15:26.226Z,19.67
2023-05-13T10:17:59.321Z,19.85
2023-05-13T10:20:35.556Z,19.97
2023-05-13T10:23:08.963Z,19.98
2023-05-13T10:25:43.131Z,19.88
2023-05-13T10:28:18.380Z,19.81
2023-05-13T10:30:54.336Z,19.84
2023-05-13T10:33:28.054Z,19.90
2023-05-13T10:36:11.473Z,19.89
2023-05-13T10:39:11.026Z,19.82
2023-05-13T10:42:37.801Z,19.87
2023-05-13T10:45:11.218Z,20.04
2023-05-13T10:47:43.876Z,19.99
2023-05-13T10:50:28.324Z,19.99
2023-05-13T10:53:03.589Z,20.05
2023-05-13T10:55:54.036Z,19.97
2023-05-13T10:58:32.037Z,19.74
2023-05-13T11:01:19.153Z,19.60
2023-05-13T11:04:06.080Z,19.58
2023-05-13T11:07:17.923Z,19.56
2023-05-13T11:10:02.466Z,19.70
2023-05-13T11:12:35.017Z,19.90
2023-05-13T11:15:28.166Z,20.00
2023-05-13T11:18:00.834Z,19.95
2023-05-13T11:20:42.465Z,20.12
2023-05-13T11:23:29.241Z,20.48
2023-05-13T11:26:22.359Z,20.75
2023-05-13T11:29:08.875Z,20.85
2023-05-13T11:32:02.850Z,20.86
2023-05-13T11:34:38.948Z,20.83
2023-05-13T11:37:22.525Z,20.81
2023-05-13T11:40:24.630Z,20.69
2023-05-13T11:42:57.395Z,20.54
2023-05-13T11:45:35.128Z,20.48
2023-05-13T11:48:22.546Z,20.65
2023-05-13T11:50:58.195Z,20.94
2023-05-13T11:53:40.721Z,21.23
2023-05-13T11:56:33.680Z,21.34
2023-05-13T11:59:19.076Z,21.31
2023-05-13T12:02:12.117Z,21.37
2023-05-13T12:05:06.950Z,21.67
2023-05-13T12:07:40.648Z,21.98
2023-05-13T12:10:33.423Z,22.08
2023-05-13T12:13:16.949Z,22.12
2023-05-13T12:16:10.685Z,22.11
2023-05-13T12:18:43.181Z,22.06
2023-05-13T12:21:26.195Z,21.91
2023-05-13T12:24:24.560Z,21.97
2023-05-13T12:27:19.093Z,22.08
2023-05-13T12:30:17.352Z,22.21
2023-05-13T12:33:04.697Z,22.24
2023-05-13T12:36:20.610Z,21.97
2023-05-13T12:39:23.860Z,21.51
2023-05-13T12:42:20.053Z,21.23
2023-05-13T12:44:53.357Z,21.23
2023-05-13T12:47:54.245Z,21.31
2023-05-13T12:50:48.033Z,21.34
2023-05-13T12:53:31.768Z,21.26
2023-05-13T12:56:25.800Z,21.22
2023-05-13T12:59:07.232Z,21.40
2023-05-13T13:01:43.397Z,21.61
2023-05-13T13:04:19.268Z,21.79
2023-05-13T13:07:14.686Z,21.99
2023-05-13T13:10:09.618Z,22.21
2023-05-13T13:13:04.050Z,22.22
2023-05-13T13:15:56.632Z,22.09
2023-05-13T13:18:53.370Z,21.91
2023-05-13T13:21:47.791Z,21.74
2023-05-13T13:24:40.516Z,21.65
2023-05-13T13:27:33.846Z,21.64
2023-05-13T13:30:26.658Z,21.40
2023-05-13T13:33:20.313Z,21.14
2023-05-13T13:35:57.003Z,20.90
2023-05-13T13:38:42.307Z,20.59
2023-05-13T13:41:35.036Z,20.26
2023-05-13T13:44:28.659Z,19.85
2023-05-13T13:47:24.690Z,19.47
2023-05-13T13:50:17.526Z,19.25
2023-05-13T13:53:12.786Z,19.36
2023-05-13T13:56:05.982Z,19.74
2023-05-13T13:58:58.444Z,19.99
2023-05-13T14:01:30.878Z,19.98
2023-05-13T14:04:15.348Z,19.88
2023-05-13T14:06:52.336Z,19.65
2023-05-13T14:09:45.177Z,19.41
2023-05-13T14:12:41.332Z,19.40
2023-05-13T14:15:17.005Z,19.54
2023-05-13T14:18:02.040Z,19.61
2023-05-13T14:20:48.790Z,19.61
2023-05-13T14:23:33.988Z,19.63
2023-05-13T14:26:07.628Z,19.72
2023-05-13T14:29:00.540Z,19.85
2023-05-13T14:31:53.538Z,20.09
2023-05-13T14:34:37.954Z,20.36
2023-05-13T14:37:30.983Z,20.69
2023-05-13T14:40:23.379Z,21.00
2023-05-13T14:43:07.235Z,21.26
2023-05-13T14:45:42.776Z,21.55
2023-05-13T14:48:20.172Z,21.79
2023-05-13T14:50:52.896Z,22.02
2023-05-13T14:53:35.905Z,22.29
2023-05-13T14:56:29.285Z,22.57
2023-05-13T14:59:22.438Z,22.77
2023-05-13T15:02:08.291Z,22.85
2023-05-13T15:05:01.535Z,22.91
2023-05-13T15:07:54.510Z,23.03
2023-05-13T15:10:39.703Z,23.12
2023-05-13T15:13:24.838Z,23.14
2023-05-13T15:15:58.227Z,23.17
2023-05-13T15:18:31.218Z,23.30
2023-05-13T15:21:08.221Z,23.52
2023-05-13T15:23:40.872Z,23.64
2023-05-13T15:26:26.071Z,23.62
2023-05-13T15:29:19.282Z,23.65
2023-05-13T15:31:54.585Z,23.68
2023-05-13T15:34:27.803Z,23.65
2023-05-13T15:37:00.877Z,23.63
2023-05-13T15:39:53.566Z,23.59
2023-05-13T15:42:27.747Z,23.47
2023-05-13T15:45:02.816Z,23.29
2023-05-13T15:47:45.553Z,23.08
2023-05-13T15:50:39.928Z,22.97
2023-05-13T15:53:33.357Z,22.90
2023-05-13T15:56:27.531Z,22.95
2023-05-13T15:59:00.176Z,23.02
2023-05-13T16:01:42.765Z,23.05
2023-05-13T16:04:26.923Z,22.99
2023-05-13T16:07:20.664Z,22.71
2023-05-13T16:10:15.447Z,22.40
2023-05-13T16:13:08.264Z,22.33
2023-05-13T16:15:54.138Z,22.51
2023-05-13T16:18:26.896Z,22.78
2023-05-13T16:21:08.820Z,23.02
2023-05-13T16:24:01.628Z,23.13
2023-05-13T16:26:44.017Z,23.34
2023-05-13T16:29:30.120Z,23.70
2023-05-13T16:32:06.185Z,24.03
2023-05-13T16:34:44.812Z,24.32
2023-05-13T16:37:37.648Z,24.44
2023-05-13T16:40:30.793Z,24.26
2023-05-13T16:43:25.739Z,23.75
2023-05-13T16:46:08.191Z,23.57
2023-05-13T16:49:01.321Z,23.74
2023-05-13T16:51:47.937Z,23.93
2023-05-13T16:54:31.346Z,24.12
2023-05-13T16:57:24.064Z,24.24
2023-05-13T17:00:17.215Z,24.36
2023-05-13T17:03:13.706Z,24.44
2023-05-13T17:05:57.266Z,24.25
2023-05-13T17:08:48.542Z,23.61
2023-05-13T17:11:41.323Z,22.84
2023-05-13T17:14:16.555Z,22.18
2023-05-13T17:16:52.886Z,21.56
2023-05-13T17:19:45.653Z,21.00
2023-05-13T17:22:29.576Z,20.48
2023-05-13T17:25:02.540Z,20.02
2023-05-13T17:27:55.505Z,19.56
2023-05-13T17:30:42.231Z,19.17
2023-05-13T17:33:23.922Z,18.82
2023-05-13T17:36:00.006Z,18.47
2023-05-13T17:38:35.187Z,18.16
2023-05-13T17:41:08.695Z,17.89
2023-05-13T17:43:41.115Z,17.62
2023-05-13T17:46:15.781Z,17.37
2023-05-13T17:48:48.819Z,17.12
2023-05-13T17:51:32.463Z,16.86
2023-05-13T17:54:08.144Z,16.61
2023-05-13T17:56:51.321Z,16.37
2023-05-13T17:59:36.751Z,16.14
2023-05-13T18:02:19.341Z,15.93
2023-05-13T18:04:55.168Z,15.72
2023-05-13T18:07:32.299Z,15.50
2023-05-13T18:10:09.183Z,15.26
2023-05-13T18:12:41.996Z,15.05
2023-05-13T18:15:17.393Z,14.83
2023-05-13T18:17:52.548Z,14.61
2023-05-13T18:20:25.857Z,14.38
2023-05-13T18:22:58.262Z,14.14
2023-05-13T18:25:33.576Z,13.92
2023-05-13T18:28:07.599Z,13.70
2023-05-13T18:30:40.250Z,13.48
2023-05-13T18:33:12.777Z,13.28
2023-05-13T18:35:46.046Z,13.07
2023-05-13T18:38:22.257Z,12.88
2023-05-13T18:41:05.129Z,12.68
2023-05-13T18:43:38.710Z,12.51
2023-05-13T18:46:23.206Z,12.32
2023-05-13T18:49:05.264Z,12.14
2023-05-13T18:51:41.252Z,11.98
2023-05-13T18:54:18.480Z,11.81
2023-05-13T18:56:52.387Z,11.66
2023-05-13T18:59:35.103Z,11.49
2023-05-13T19:02:08.136Z,11.34
2023-05-13T19:04:44.508Z,11.20
2023-05-13T19:07:20.695Z,11.06
2023-05-13T19:09:53.481Z,10.94
2023-05-13T19:12:39.747Z,10.79
2023-05-13T19:15:13.432Z,10.67
2023-05-13T19:17:49.104Z,10.54
2023-05-13T19:20:34.615Z,10.42
2023-05-13T19:23:17.409Z,10.30
2023-05-13T19:26:10.371Z,10.19
2023-05-13T19:28:47.853Z,10.08
2023-05-13T19:31:31.559Z,9.99
2023-05-13T19:34:18.295Z,10.03
2023-05-13T19:37:05.067Z,10.06
2023-05-13T19:39:58.081Z,10.08
2023-05-13T19:42:35.851Z,10.08
2023-05-13T19:45:22.863Z,10.07
2023-05-13T19:47:58.956Z,10.07
2023-05-13T19:50:53.609Z,10.08
2023-05-13T19:53:29.410Z,10.10
2023-05-13T19:56:13.020Z,10.12
2023-05-13T19:58:59.521Z,10.14
2023-05-13T20:01:52.077Z,10.19
2023-05-13T20:04:44.940Z,10.25
2023-05-13T20:07:31.283Z,10.29
2023-05-13T20:10:15.381Z,10.32
2023-05-13T20:12:58.159Z,10.35
2023-05-13T20:15:52.683Z,10.37
2023-05-13T20:18:45.416Z,10.37
2023-05-13T20:21:40.764Z,10.37
2023-05-13T20:24:33.716Z,10.37
2023-05-13T20:27:28.662Z,10.36
2023-05-13T20:30:22.190Z,10.36
2023-05-13T20:33:04.328Z,10.38
2023-05-13T20:35:57.309Z,10.40
2023-05-13T20:38:50.848Z,10.37
2023-05-13T20:41:26.577Z,10.34
2023-05-13T20:44:20.060Z,10.30
2023-05-13T20:47:12.877Z,10.26
2023-05-13T20:49:48.141Z,10.21
2023-05-13T20:52:40.924Z,10.16
2023-05-13T20:55:33.909Z,10.09
2023-05-13T20:58:16.736Z,10.02
2023-05-13T21:00:59.540Z,9.94
2023-05-13T21:03:42.302Z,9.85
2023-05-13T21:06:17.715Z,9.76
2023-05-13T21:09:04.465Z,9.66
2023-05-13T21:11:48.097Z,9.55
2023-05-13T21:14:41.325Z,9.44
2023-05-13T21:17:34.934Z,9.33
2023-05-13T21:20:12.826Z,9.23
2023-05-13T21:22:55.260Z,9.14
2023-05-13T21:25:47.782Z,9.04
2023-05-13T21:28:31.450Z,8.96
2023-05-13T21:31:04.448Z,8.87
2023-05-13T21:33:57.531Z,8.79
2023-05-13T21:36:50.452Z,8.73
2023-05-13T21:39:43.370Z,8.68
2023-05-13T21:42:36.039Z,8.63
2023-05-13T21:45:24.033Z,8.59
2023-05-13T21:48:16.276Z,8.56
2023-05-13T21:50:58.130Z,8.56
2023-05-13T21:53:34.070Z,8.57
2023-05-13T21:56:27.207Z,8.59
2023-05-13T21:58:59.903Z,8.59
2023-05-13T22:01:42.444Z,8.61
2023-05-13T22:04:26.368Z,8.61
2023-05-13T22:06:59.577Z,8.62
2023-05-13T22:09:51.490Z,8.63
2023-05-13T22:12:26.994Z,8.64
2023-05-13T22:14:59.681Z,8.64
2023-05-13T22:17:32.545Z,8.62
2023-05-13T22:20:21.188Z,8.59
2023-05-13T22:22:55.315Z,8.55
2023-05-13T22:25:30.677Z,8.49
2023-05-13T22:28:08.888Z,8.42
2023-05-13T22:31:01.667Z,8.30
2023-05-13T22:33:37.330Z,8.21
2023-05-13T22:36:19.002Z,8.14
2023-05-13T22:38:54.282Z,8.08
2023-05-13T22:41:37.022Z,8.01
2023-05-13T22:44:14.580Z,7.96
2023-05-13T22:46:50.410Z,7.91
2023-05-13T22:49:23.427Z,7.87
2023-05-13T22:51:56.321Z,7.83
2023-05-13T22:54:28.676Z,7.79
2023-05-13T22:57:01.443Z,7.77
2023-05-13T22:59:34.020Z,7.74
2023-05-13T23:02:07.333Z,7.72
2023-05-13T23:04:39.867Z,7.68
2023-05-13T23:07:14.494Z,7.64
2023-05-13T23:09:47.094Z,7.60
2023-05-13T23:12:27.731Z,7.56
2023-05-13T23:15:05.359Z,7.52
2023-05-13T23:17:58.097Z,7.46
2023-05-13T23:20:30.905Z,7.41
2023-05-13T23:23:26.814Z,7.36
2023-05-13T23:25:59.824Z,7.31
2023-05-13T23:28:36.077Z,7.26
2023-05-13T23:31:11.848Z,7.22
2023-05-13T23:33:48.576Z,7.18
2023-05-13T23:36:29.854Z,7.14
2023-05-13T23:39:02.361Z,7.11
2023-05-13T23:41:47.554Z,7.08
2023-05-13T23:44:23.883Z,7.05
2023-05-13T23:46:56.543Z,7.02
2023-05-13T23:49:40.232Z,6.98
2023-05-13T23:52:12.982Z,6.94
2023-05-13T23:54:48.640Z,6.91
2023-05-13T23:57:31.365Z,6.87
